sensor_id;sensor_type;location;lat;lon;timestamp;P1;durP1;ratioP1;P2;durP2;ratioP2
10120;SDS011;5100;45.176;5.714;2023-08-08T00:02:22;0.80;;;0.77;;
10120;SDS011;5100;45.176;5.714;2023-08-08T00:04:49;0.80;;;0.80;;
10120;SDS011;5100;45.176;5.714;2023-08-08T00:07:15;0.90;;;0.90;;
10120;SDS011;5100;45.176;5.714;2023-08-08T00:09:41;2.28;;;1.12;;
10120;SDS011;5100;45.176;5.714;2023-08-08T00:12:08;1.10;;;1.00;;
10120;SDS011;5100;45.176;5.714;2023-08-08T00:14:34;0.77;;;0.77;;
10120;SDS011;5100;45.176;5.714;2023-08-08T00:17:00;0.77;;;0.77;;
10120;SDS011;5100;45.176;5.714;2023-08-08T00:19:26;0.90;;;0.90;;
10120;SDS011;5100;45.176;5.714;2023-08-08T00:21:52;1.48;;;0.95;;
10120;SDS011;5100;45.176;5.714;2023-08-08T00:24:18;0.85;;;0.85;;
10120;SDS011;5100;45.176;5.714;2023-08-08T00:26:44;0.70;;;0.70;;
10120;SDS011;5100;45.176;5.714;2023-08-08T00:29:10;0.80;;;0.80;;
10120;SDS011;5100;45.176;5.714;2023-08-08T00:31:36;0.73;;;0.70;;
10120;SDS011;5100;45.176;5.714;2023-08-08T00:34:02;0.98;;;0.98;;
10120;SDS011;5100;45.176;5.714;2023-08-08T00:36:28;0.80;;;0.80;;
10120;SDS011;5100;45.176;5.714;2023-08-08T00:38:54;1.05;;;0.93;;
10120;SDS011;5100;45.176;5.714;2023-08-08T00:41:21;0.80;;;0.80;;
10120;SDS011;5100;45.176;5.714;2023-08-08T00:43:48;0.80;;;0.80;;
10120;SDS011;5100;45.176;5.714;2023-08-08T00:46:14;1.17;;;1.10;;
10120;SDS011;5100;45.176;5.714;2023-08-08T00:48:43;0.85;;;0.82;;
10120;SDS011;5100;45.176;5.714;2023-08-08T00:51:08;0.82;;;0.82;;
10120;SDS011;5100;45.176;5.714;2023-08-08T00:53:34;0.93;;;0.93;;
10120;SDS011;5100;45.176;5.714;2023-08-08T00:56:01;1.10;;;0.95;;
10120;SDS011;5100;45.176;5.714;2023-08-08T00:58:28;1.00;;;1.00;;
10120;SDS011;5100;45.176;5.714;2023-08-08T01:00:54;1.10;;;1.10;;
10120;SDS011;5100;45.176;5.714;2023-08-08T01:03:23;0.75;;;0.70;;
10120;SDS011;5100;45.176;5.714;2023-08-08T01:05:53;2.08;;;1.00;;
10120;SDS011;5100;45.176;5.714;2023-08-08T01:08:42;0.80;;;0.80;;
10120;SDS011;5100;45.176;5.714;2023-08-08T01:11:23;0.70;;;0.70;;
10120;SDS011;5100;45.176;5.714;2023-08-08T01:13:52;0.82;;;0.82;;
10120;SDS011;5100;45.176;5.714;2023-08-08T01:16:20;1.10;;;1.00;;
10120;SDS011;5100;45.176;5.714;2023-08-08T01:18:47;0.90;;;0.90;;
10120;SDS011;5100;45.176;5.714;2023-08-08T01:21:15;0.80;;;0.80;;
10120;SDS011;5100;45.176;5.714;2023-08-08T01:23:46;0.82;;;0.82;;
10120;SDS011;5100;45.176;5.714;2023-08-08T01:26:20;0.95;;;0.95;;
10120;SDS011;5100;45.176;5.714;2023-08-08T01:28:47;0.75;;;0.75;;
10120;SDS011;5100;45.176;5.714;2023-08-08T01:31:13;2.08;;;0.80;;
10120;SDS011;5100;45.176;5.714;2023-08-08T01:33:40;1.25;;;1.00;;
10120;SDS011;5100;45.176;5.714;2023-08-08T01:36:10;0.70;;;0.70;;
10120;SDS011;5100;45.176;5.714;2023-08-08T01:38:51;1.10;;;1.00;;
10120;SDS011;5100;45.176;5.714;2023-08-08T01:41:20;0.75;;;0.75;;
10120;SDS011;5100;45.176;5.714;2023-08-08T01:43:47;1.12;;;1.02;;
10120;SDS011;5100;45.176;5.714;2023-08-08T01:46:14;0.90;;;0.90;;
10120;SDS011;5100;45.176;5.714;2023-08-08T01:48:44;1.05;;;1.00;;
10120;SDS011;5100;45.176;5.714;2023-08-08T01:51:11;3.62;;;1.05;;
10120;SDS011;5100;45.176;5.714;2023-08-08T01:53:37;1.52;;;1.00;;
10120;SDS011;5100;45.176;5.714;2023-08-08T01:56:03;0.90;;;0.90;;
10120;SDS011;5100;45.176;5.714;2023-08-08T01:58:29;0.80;;;0.80;;
10120;SDS011;5100;45.176;5.714;2023-08-08T02:00:55;2.28;;;1.00;;
10120;SDS011;5100;45.176;5.714;2023-08-08T02:03:21;0.82;;;0.77;;
10120;SDS011;5100;45.176;5.714;2023-08-08T02:05:47;2.03;;;1.00;;
10120;SDS011;5100;45.176;5.714;2023-08-08T02:08:13;1.10;;;1.00;;
10120;SDS011;5100;45.176;5.714;2023-08-08T02:10:40;0.90;;;0.90;;
10120;SDS011;5100;45.176;5.714;2023-08-08T02:13:06;0.98;;;0.85;;
10120;SDS011;5100;45.176;5.714;2023-08-08T02:15:32;0.80;;;0.80;;
10120;SDS011;5100;45.176;5.714;2023-08-08T02:17:59;0.90;;;0.90;;
10120;SDS011;5100;45.176;5.714;2023-08-08T02:20:26;0.75;;;0.75;;
10120;SDS011;5100;45.176;5.714;2023-08-08T02:22:52;1.02;;;0.70;;
10120;SDS011;5100;45.176;5.714;2023-08-08T02:25:18;2.17;;;1.02;;
10120;SDS011;5100;45.176;5.714;2023-08-08T02:27:44;1.67;;;0.80;;
10120;SDS011;5100;45.176;5.714;2023-08-08T02:30:10;1.05;;;0.90;;
10120;SDS011;5100;45.176;5.714;2023-08-08T02:32:37;1.00;;;1.00;;
10120;SDS011;5100;45.176;5.714;2023-08-08T02:35:03;0.80;;;0.80;;
10120;SDS011;5100;45.176;5.714;2023-08-08T02:37:29;2.42;;;1.10;;
10120;SDS011;5100;45.176;5.714;2023-08-08T02:39:55;0.93;;;0.90;;
10120;SDS011;5100;45.176;5.714;2023-08-08T02:42:21;1.00;;;1.00;;
10120;SDS011;5100;45.176;5.714;2023-08-08T02:44:47;1.10;;;1.00;;
10120;SDS011;5100;45.176;5.714;2023-08-08T02:47:14;0.75;;;0.75;;
10120;SDS011;5100;45.176;5.714;2023-08-08T02:49:40;1.67;;;1.05;;
10120;SDS011;5100;45.176;5.714;2023-08-08T02:52:07;1.05;;;1.00;;
10120;SDS011;5100;45.176;5.714;2023-08-08T02:54:33;1.00;;;0.80;;
10120;SDS011;5100;45.176;5.714;2023-08-08T02:57:00;0.90;;;0.90;;
10120;SDS011;5100;45.176;5.714;2023-08-08T02:59:26;0.90;;;0.90;;
10120;SDS011;5100;45.176;5.714;2023-08-08T03:01:53;1.10;;;0.98;;
10120;SDS011;5100;45.176;5.714;2023-08-08T03:04:19;1.17;;;1.17;;
10120;SDS011;5100;45.176;5.714;2023-08-08T03:06:45;2.00;;;1.10;;
10120;SDS011;5100;45.176;5.714;2023-08-08T03:09:11;1.50;;;0.82;;
10120;SDS011;5100;45.176;5.714;2023-08-08T03:11:38;1.87;;;1.10;;
10120;SDS011;5100;45.176;5.714;2023-08-08T03:14:08;3.28;;;1.40;;
10120;SDS011;5100;45.176;5.714;2023-08-08T03:16:35;1.30;;;1.25;;
10120;SDS011;5100;45.176;5.714;2023-08-08T03:19:02;1.25;;;1.00;;
10120;SDS011;5100;45.176;5.714;2023-08-08T03:21:28;5.03;;;1.05;;
10120;SDS011;5100;45.176;5.714;2023-08-08T03:23:54;1.33;;;0.98;;
10120;SDS011;5100;45.176;5.714;2023-08-08T03:26:20;0.82;;;0.82;;
10120;SDS011;5100;45.176;5.714;2023-08-08T03:28:47;2.78;;;0.90;;
10120;SDS011;5100;45.176;5.714;2023-08-08T03:31:16;1.92;;;0.90;;
10120;SDS011;5100;45.176;5.714;2023-08-08T03:33:46;4.03;;;1.17;;
10120;SDS011;5100;45.176;5.714;2023-08-08T03:36:13;0.80;;;0.80;;
10120;SDS011;5100;45.176;5.714;2023-08-08T03:38:40;1.80;;;1.00;;
10120;SDS011;5100;45.176;5.714;2023-08-08T03:41:10;1.33;;;1.00;;
10120;SDS011;5100;45.176;5.714;2023-08-08T03:43:36;0.90;;;0.90;;
10120;SDS011;5100;45.176;5.714;2023-08-08T03:46:02;1.15;;;1.10;;
10120;SDS011;5100;45.176;5.714;2023-08-08T03:48:28;1.00;;;0.85;;
10120;SDS011;5100;45.176;5.714;2023-08-08T03:50:56;1.30;;;1.20;;
10120;SDS011;5100;45.176;5.714;2023-08-08T03:53:22;2.90;;;0.90;;
10120;SDS011;5100;45.176;5.714;2023-08-08T03:55:48;1.20;;;1.10;;
10120;SDS011;5100;45.176;5.714;2023-08-08T03:58:15;2.47;;;1.33;;
10120;SDS011;5100;45.176;5.714;2023-08-08T04:00:41;3.25;;;1.15;;
10120;SDS011;5100;45.176;5.714;2023-08-08T04:03:12;1.05;;;1.05;;
10120;SDS011;5100;45.176;5.714;2023-08-08T04:05:40;1.20;;;1.00;;
10120;SDS011;5100;45.176;5.714;2023-08-08T04:08:06;1.33;;;0.90;;
10120;SDS011;5100;45.176;5.714;2023-08-08T04:10:33;1.80;;;1.10;;
10120;SDS011;5100;45.176;5.714;2023-08-08T04:12:59;1.00;;;1.00;;
10120;SDS011;5100;45.176;5.714;2023-08-08T04:15:25;2.22;;;0.93;;
10120;SDS011;5100;45.176;5.714;2023-08-08T04:17:51;1.25;;;1.05;;
10120;SDS011;5100;45.176;5.714;2023-08-08T04:20:17;0.93;;;0.80;;
10120;SDS011;5100;45.176;5.714;2023-08-08T04:22:43;1.58;;;1.00;;
10120;SDS011;5100;45.176;5.714;2023-08-08T04:25:09;1.48;;;1.05;;
10120;SDS011;5100;45.176;5.714;2023-08-08T04:27:35;0.90;;;0.90;;
10120;SDS011;5100;45.176;5.714;2023-08-08T04:30:01;1.02;;;0.90;;
10120;SDS011;5100;45.176;5.714;2023-08-08T04:32:28;0.90;;;0.80;;
10120;SDS011;5100;45.176;5.714;2023-08-08T04:34:55;1.55;;;1.00;;
10120;SDS011;5100;45.176;5.714;2023-08-08T04:37:21;0.88;;;0.88;;
10120;SDS011;5100;45.176;5.714;2023-08-08T04:39:47;1.00;;;1.00;;
10120;SDS011;5100;45.176;5.714;2023-08-08T04:42:13;0.90;;;0.90;;
10120;SDS011;5100;45.176;5.714;2023-08-08T04:44:38;3.00;;;1.02;;
10120;SDS011;5100;45.176;5.714;2023-08-08T04:47:05;1.67;;;0.85;;
10120;SDS011;5100;45.176;5.714;2023-08-08T04:49:31;1.02;;;0.85;;
10120;SDS011;5100;45.176;5.714;2023-08-08T04:51:57;1.10;;;1.00;;
10120;SDS011;5100;45.176;5.714;2023-08-08T04:54:23;1.00;;;0.90;;
10120;SDS011;5100;45.176;5.714;2023-08-08T04:56:49;1.25;;;1.12;;
10120;SDS011;5100;45.176;5.714;2023-08-08T04:59:15;1.45;;;1.10;;
10120;SDS011;5100;45.176;5.714;2023-08-08T05:01:41;2.40;;;1.50;;
10120;SDS011;5100;45.176;5.714;2023-08-08T05:04:08;1.45;;;1.35;;
10120;SDS011;5100;45.176;5.714;2023-08-08T05:06:34;1.55;;;1.15;;
10120;SDS011;5100;45.176;5.714;2023-08-08T05:09:00;1.15;;;1.08;;
10120;SDS011;5100;45.176;5.714;2023-08-08T05:11:26;1.40;;;1.30;;
10120;SDS011;5100;45.176;5.714;2023-08-08T05:13:52;1.05;;;1.05;;
10120;SDS011;5100;45.176;5.714;2023-08-08T05:16:18;1.40;;;1.30;;
10120;SDS011;5100;45.176;5.714;2023-08-08T05:18:44;1.12;;;1.10;;
10120;SDS011;5100;45.176;5.714;2023-08-08T05:21:10;2.92;;;1.33;;
10120;SDS011;5100;45.176;5.714;2023-08-08T05:23:36;1.30;;;1.20;;
10120;SDS011;5100;45.176;5.714;2023-08-08T05:26:03;1.80;;;1.48;;
10120;SDS011;5100;45.176;5.714;2023-08-08T05:28:29;1.30;;;1.20;;
10120;SDS011;5100;45.176;5.714;2023-08-08T05:30:55;1.10;;;1.10;;
10120;SDS011;5100;45.176;5.714;2023-08-08T05:33:21;1.15;;;1.08;;
10120;SDS011;5100;45.176;5.714;2023-08-08T05:35:47;2.25;;;1.10;;
10120;SDS011;5100;45.176;5.714;2023-08-08T05:38:14;1.45;;;1.10;;
10120;SDS011;5100;45.176;5.714;2023-08-08T05:40:40;1.08;;;0.98;;
10120;SDS011;5100;45.176;5.714;2023-08-08T05:43:07;0.82;;;0.82;;
10120;SDS011;5100;45.176;5.714;2023-08-08T05:45:33;1.52;;;1.00;;
10120;SDS011;5100;45.176;5.714;2023-08-08T05:47:59;1.73;;;0.88;;
10120;SDS011;5100;45.176;5.714;2023-08-08T05:50:28;0.80;;;0.80;;
10120;SDS011;5100;45.176;5.714;2023-08-08T05:52:54;1.45;;;1.30;;
10120;SDS011;5100;45.176;5.714;2023-08-08T05:55:20;1.35;;;1.10;;
10120;SDS011;5100;45.176;5.714;2023-08-08T05:57:46;0.90;;;0.90;;
10120;SDS011;5100;45.176;5.714;2023-08-08T06:00:12;4.07;;;1.10;;
10120;SDS011;5100;45.176;5.714;2023-08-08T06:02:39;1.05;;;0.95;;
10120;SDS011;5100;45.176;5.714;2023-08-08T06:05:05;1.20;;;1.10;;
10120;SDS011;5100;45.176;5.714;2023-08-08T06:07:31;1.15;;;1.00;;
10120;SDS011;5100;45.176;5.714;2023-08-08T06:09:57;2.20;;;1.20;;
10120;SDS011;5100;45.176;5.714;2023-08-08T06:12:24;1.10;;;1.10;;
10120;SDS011;5100;45.176;5.714;2023-08-08T06:14:50;3.85;;;1.37;;
10120;SDS011;5100;45.176;5.714;2023-08-08T06:17:15;2.08;;;1.12;;
10120;SDS011;5100;45.176;5.714;2023-08-08T06:19:42;1.83;;;1.10;;
10120;SDS011;5100;45.176;5.714;2023-08-08T06:22:08;1.10;;;1.10;;
10120;SDS011;5100;45.176;5.714;2023-08-08T06:24:34;7.82;;;1.20;;
10120;SDS011;5100;45.176;5.714;2023-08-08T06:27:00;1.35;;;1.00;;
10120;SDS011;5100;45.176;5.714;2023-08-08T06:29:26;1.10;;;1.10;;
10120;SDS011;5100;45.176;5.714;2023-08-08T06:31:53;1.48;;;1.37;;
10120;SDS011;5100;45.176;5.714;2023-08-08T06:34:19;1.25;;;1.05;;
10120;SDS011;5100;45.176;5.714;2023-08-08T06:36:45;2.47;;;1.02;;
10120;SDS011;5100;45.176;5.714;2023-08-08T06:39:12;1.62;;;1.17;;
10120;SDS011;5100;45.176;5.714;2023-08-08T06:41:38;1.23;;;1.05;;
10120;SDS011;5100;45.176;5.714;2023-08-08T06:44:04;3.85;;;1.20;;
10120;SDS011;5100;45.176;5.714;2023-08-08T06:46:32;1.30;;;1.20;;
10120;SDS011;5100;45.176;5.714;2023-08-08T06:48:59;3.55;;;1.52;;
10120;SDS011;5100;45.176;5.714;2023-08-08T06:51:26;2.00;;;1.10;;
10120;SDS011;5100;45.176;5.714;2023-08-08T06:53:52;1.37;;;1.12;;
10120;SDS011;5100;45.176;5.714;2023-08-08T06:56:18;1.15;;;1.15;;
10120;SDS011;5100;45.176;5.714;2023-08-08T06:58:44;5.22;;;1.25;;
10120;SDS011;5100;45.176;5.714;2023-08-08T07:01:10;1.40;;;1.30;;
10120;SDS011;5100;45.176;5.714;2023-08-08T07:03:37;2.60;;;1.40;;
10120;SDS011;5100;45.176;5.714;2023-08-08T07:06:03;2.87;;;1.60;;
10120;SDS011;5100;45.176;5.714;2023-08-08T07:08:29;2.75;;;1.90;;
10120;SDS011;5100;45.176;5.714;2023-08-08T07:10:56;2.55;;;1.90;;
10120;SDS011;5100;45.176;5.714;2023-08-08T07:13:23;2.05;;;1.85;;
10120;SDS011;5100;45.176;5.714;2023-08-08T07:15:49;3.95;;;1.90;;
10120;SDS011;5100;45.176;5.714;2023-08-08T07:18:15;2.22;;;1.77;;
10120;SDS011;5100;45.176;5.714;2023-08-08T07:20:41;1.90;;;1.80;;
10120;SDS011;5100;45.176;5.714;2023-08-08T07:23:07;2.20;;;1.90;;
10120;SDS011;5100;45.176;5.714;2023-08-08T07:25:33;2.45;;;2.05;;
10120;SDS011;5100;45.176;5.714;2023-08-08T07:28:00;1.87;;;1.77;;
10120;SDS011;5100;45.176;5.714;2023-08-08T07:30:26;2.78;;;2.05;;
10120;SDS011;5100;45.176;5.714;2023-08-08T07:32:52;2.03;;;1.92;;
10120;SDS011;5100;45.176;5.714;2023-08-08T07:35:18;3.28;;;2.03;;
10120;SDS011;5100;45.176;5.714;2023-08-08T07:37:44;2.97;;;1.98;;
10120;SDS011;5100;45.176;5.714;2023-08-08T07:40:14;3.15;;;2.65;;
10120;SDS011;5100;45.176;5.714;2023-08-08T07:42:43;3.62;;;2.53;;
10120;SDS011;5100;45.176;5.714;2023-08-08T07:45:09;2.53;;;2.33;;
10120;SDS011;5100;45.176;5.714;2023-08-08T07:47:36;7.20;;;2.17;;
10120;SDS011;5100;45.176;5.714;2023-08-08T07:50:02;3.55;;;2.60;;
10120;SDS011;5100;45.176;5.714;2023-08-08T07:52:28;2.53;;;2.30;;
10120;SDS011;5100;45.176;5.714;2023-08-08T07:54:54;2.37;;;2.17;;
10120;SDS011;5100;45.176;5.714;2023-08-08T07:57:20;3.85;;;2.33;;
10120;SDS011;5100;45.176;5.714;2023-08-08T07:59:46;3.47;;;2.33;;
10120;SDS011;5100;45.176;5.714;2023-08-08T08:02:12;3.20;;;2.12;;
10120;SDS011;5100;45.176;5.714;2023-08-08T08:04:39;2.97;;;2.50;;
10120;SDS011;5100;45.176;5.714;2023-08-08T08:07:05;4.82;;;2.28;;
10120;SDS011;5100;45.176;5.714;2023-08-08T08:09:31;2.55;;;2.30;;
10120;SDS011;5100;45.176;5.714;2023-08-08T08:11:57;2.90;;;2.17;;
10120;SDS011;5100;45.176;5.714;2023-08-08T08:14:23;2.35;;;2.15;;
10120;SDS011;5100;45.176;5.714;2023-08-08T08:16:49;2.50;;;2.30;;
10120;SDS011;5100;45.176;5.714;2023-08-08T08:19:16;2.95;;;2.08;;
10120;SDS011;5100;45.176;5.714;2023-08-08T08:21:42;2.83;;;2.40;;
10120;SDS011;5100;45.176;5.714;2023-08-08T08:24:08;2.95;;;2.37;;
10120;SDS011;5100;45.176;5.714;2023-08-08T08:26:35;2.62;;;2.12;;
10120;SDS011;5100;45.176;5.714;2023-08-08T08:29:00;2.30;;;2.10;;
10120;SDS011;5100;45.176;5.714;2023-08-08T08:31:27;2.25;;;2.05;;
10120;SDS011;5100;45.176;5.714;2023-08-08T08:33:54;2.20;;;2.00;;
10120;SDS011;5100;45.176;5.714;2023-08-08T08:36:20;2.40;;;2.20;;
10120;SDS011;5100;45.176;5.714;2023-08-08T08:38:47;2.37;;;2.17;;
10120;SDS011;5100;45.176;5.714;2023-08-08T08:41:15;2.03;;;1.92;;
10120;SDS011;5100;45.176;5.714;2023-08-08T08:43:44;2.45;;;2.22;;
10120;SDS011;5100;45.176;5.714;2023-08-08T08:46:10;2.33;;;2.10;;
10120;SDS011;5100;45.176;5.714;2023-08-08T08:48:40;2.37;;;2.10;;
10120;SDS011;5100;45.176;5.714;2023-08-08T08:51:07;2.20;;;2.00;;
10120;SDS011;5100;45.176;5.714;2023-08-08T08:53:33;9.88;;;2.10;;
10120;SDS011;5100;45.176;5.714;2023-08-08T08:56:04;2.58;;;2.37;;
10120;SDS011;5100;45.176;5.714;2023-08-08T08:58:31;1.80;;;1.70;;
10120;SDS011;5100;45.176;5.714;2023-08-08T09:00:57;2.33;;;1.80;;
10120;SDS011;5100;45.176;5.714;2023-08-08T09:03:24;1.90;;;1.80;;
10120;SDS011;5100;45.176;5.714;2023-08-08T09:05:50;2.00;;;1.80;;
10120;SDS011;5100;45.176;5.714;2023-08-08T09:08:19;3.28;;;2.00;;
10120;SDS011;5100;45.176;5.714;2023-08-08T09:10:46;1.80;;;1.70;;
10120;SDS011;5100;45.176;5.714;2023-08-08T09:13:12;2.78;;;2.03;;
10120;SDS011;5100;45.176;5.714;2023-08-08T09:15:38;2.30;;;2.10;;
10120;SDS011;5100;45.176;5.714;2023-08-08T09:18:05;2.15;;;1.73;;
10120;SDS011;5100;45.176;5.714;2023-08-08T09:20:33;1.70;;;1.60;;
10120;SDS011;5100;45.176;5.714;2023-08-08T09:23:00;1.75;;;1.45;;
10120;SDS011;5100;45.176;5.714;2023-08-08T09:25:26;1.62;;;1.52;;
10120;SDS011;5100;45.176;5.714;2023-08-08T09:27:52;2.20;;;1.58;;
10120;SDS011;5100;45.176;5.714;2023-08-08T09:30:18;2.65;;;1.98;;
10120;SDS011;5100;45.176;5.714;2023-08-08T09:32:46;2.25;;;1.58;;
10120;SDS011;5100;45.176;5.714;2023-08-08T09:35:12;1.70;;;1.55;;
10120;SDS011;5100;45.176;5.714;2023-08-08T09:37:38;2.15;;;1.80;;
10120;SDS011;5100;45.176;5.714;2023-08-08T09:40:05;2.37;;;1.37;;
10120;SDS011;5100;45.176;5.714;2023-08-08T09:42:33;1.67;;;1.30;;
10120;SDS011;5100;45.176;5.714;2023-08-08T09:45:00;2.62;;;1.50;;
10120;SDS011;5100;45.176;5.714;2023-08-08T09:47:27;1.10;;;1.10;;
10120;SDS011;5100;45.176;5.714;2023-08-08T09:50:00;1.37;;;1.27;;
10120;SDS011;5100;45.176;5.714;2023-08-08T09:52:30;1.62;;;1.52;;
10120;SDS011;5100;45.176;5.714;2023-08-08T09:54:56;2.22;;;1.55;;
10120;SDS011;5100;45.176;5.714;2023-08-08T09:57:23;2.22;;;1.40;;
10120;SDS011;5100;45.176;5.714;2023-08-08T09:59:51;1.50;;;1.40;;
10120;SDS011;5100;45.176;5.714;2023-08-08T10:02:17;1.60;;;1.50;;
10120;SDS011;5100;45.176;5.714;2023-08-08T10:04:47;1.52;;;1.42;;
10120;SDS011;5100;45.176;5.714;2023-08-08T10:07:14;1.73;;;1.60;;
10120;SDS011;5100;45.176;5.714;2023-08-08T10:09:40;2.28;;;1.90;;
10120;SDS011;5100;45.176;5.714;2023-08-08T10:12:07;1.50;;;1.40;;
10120;SDS011;5100;45.176;5.714;2023-08-08T10:14:36;1.90;;;1.70;;
10120;SDS011;5100;45.176;5.714;2023-08-08T10:17:06;1.70;;;1.60;;
10120;SDS011;5100;45.176;5.714;2023-08-08T10:19:32;5.45;;;1.85;;
10120;SDS011;5100;45.176;5.714;2023-08-08T10:22:00;1.67;;;1.58;;
10120;SDS011;5100;45.176;5.714;2023-08-08T10:24:36;2.47;;;1.42;;
10120;SDS011;5100;45.176;5.714;2023-08-08T10:27:04;1.67;;;1.58;;
10120;SDS011;5100;45.176;5.714;2023-08-08T10:29:31;1.73;;;1.60;;
10120;SDS011;5100;45.176;5.714;2023-08-08T10:31:59;1.52;;;1.40;;
10120;SDS011;5100;45.176;5.714;2023-08-08T10:34:27;2.05;;;1.95;;
10120;SDS011;5100;45.176;5.714;2023-08-08T10:37:13;1.95;;;1.52;;
10120;SDS011;5100;45.176;5.714;2023-08-08T10:39:59;1.35;;;1.25;;
10120;SDS011;5100;45.176;5.714;2023-08-08T10:42:26;2.58;;;2.10;;
10120;SDS011;5100;45.176;5.714;2023-08-08T10:44:54;1.83;;;1.73;;
10120;SDS011;5100;45.176;5.714;2023-08-08T10:47:23;3.58;;;1.50;;
10120;SDS011;5100;45.176;5.714;2023-08-08T10:49:57;4.05;;;1.50;;
10120;SDS011;5100;45.176;5.714;2023-08-08T10:52:24;1.70;;;1.60;;
10120;SDS011;5100;45.176;5.714;2023-08-08T10:54:53;1.50;;;1.40;;
10120;SDS011;5100;45.176;5.714;2023-08-08T10:57:20;1.58;;;1.48;;
10120;SDS011;5100;45.176;5.714;2023-08-08T10:59:50;1.60;;;1.30;;
10120;SDS011;5100;45.176;5.714;2023-08-08T11:02:16;2.78;;;2.10;;
10120;SDS011;5100;45.176;5.714;2023-08-08T11:04:43;2.37;;;1.95;;
10120;SDS011;5100;45.176;5.714;2023-08-08T11:07:10;1.33;;;1.25;;
10120;SDS011;5100;45.176;5.714;2023-08-08T11:09:36;1.48;;;1.37;;
10120;SDS011;5100;45.176;5.714;2023-08-08T11:12:02;3.00;;;1.40;;
10120;SDS011;5100;45.176;5.714;2023-08-08T11:14:29;1.42;;;1.30;;
10120;SDS011;5100;45.176;5.714;2023-08-08T11:16:55;1.42;;;1.33;;
10120;SDS011;5100;45.176;5.714;2023-08-08T11:19:21;2.40;;;1.40;;
10120;SDS011;5100;45.176;5.714;2023-08-08T11:21:48;2.47;;;2.12;;
10120;SDS011;5100;45.176;5.714;2023-08-08T11:24:15;1.40;;;1.30;;
10120;SDS011;5100;45.176;5.714;2023-08-08T11:26:41;1.33;;;1.23;;
10120;SDS011;5100;45.176;5.714;2023-08-08T11:29:10;1.30;;;1.20;;
10120;SDS011;5100;45.176;5.714;2023-08-08T11:31:37;1.25;;;1.10;;
10120;SDS011;5100;45.176;5.714;2023-08-08T11:34:03;1.80;;;1.67;;
10120;SDS011;5100;45.176;5.714;2023-08-08T11:36:31;1.23;;;1.20;;
10120;SDS011;5100;45.176;5.714;2023-08-08T11:38:59;2.58;;;1.40;;
10120;SDS011;5100;45.176;5.714;2023-08-08T11:41:33;2.80;;;1.30;;
10120;SDS011;5100;45.176;5.714;2023-08-08T11:44:02;1.80;;;1.20;;
10120;SDS011;5100;45.176;5.714;2023-08-08T11:46:29;3.87;;;1.40;;
10120;SDS011;5100;45.176;5.714;2023-08-08T11:49:01;1.42;;;1.33;;
10120;SDS011;5100;45.176;5.714;2023-08-08T11:51:29;1.10;;;1.10;;
10120;SDS011;5100;45.176;5.714;2023-08-08T11:53:55;6.87;;;1.50;;
10120;SDS011;5100;45.176;5.714;2023-08-08T11:56:21;1.42;;;1.33;;
10120;SDS011;5100;45.176;5.714;2023-08-08T11:58:49;1.60;;;1.50;;
10120;SDS011;5100;45.176;5.714;2023-08-08T12:01:19;1.73;;;1.27;;
10120;SDS011;5100;45.176;5.714;2023-08-08T12:03:47;2.08;;;1.27;;
10120;SDS011;5100;45.176;5.714;2023-08-08T12:06:16;2.67;;;1.10;;
10120;SDS011;5100;45.176;5.714;2023-08-08T12:08:43;1.30;;;1.12;;
10120;SDS011;5100;45.176;5.714;2023-08-08T12:11:10;1.30;;;1.20;;
10120;SDS011;5100;45.176;5.714;2023-08-08T12:13:38;1.20;;;1.10;;
10120;SDS011;5100;45.176;5.714;2023-08-08T12:16:06;1.30;;;1.20;;
10120;SDS011;5100;45.176;5.714;2023-08-08T12:18:35;1.12;;;1.10;;
10120;SDS011;5100;45.176;5.714;2023-08-08T12:21:05;2.85;;;1.35;;
10120;SDS011;5100;45.176;5.714;2023-08-08T12:23:33;1.60;;;1.30;;
10120;SDS011;5100;45.176;5.714;2023-08-08T12:26:02;1.12;;;1.12;;
10120;SDS011;5100;45.176;5.714;2023-08-08T12:28:30;1.10;;;1.05;;
10120;SDS011;5100;45.176;5.714;2023-08-08T12:30:57;1.20;;;1.10;;
10120;SDS011;5100;45.176;5.714;2023-08-08T12:33:23;1.10;;;1.10;;
10120;SDS011;5100;45.176;5.714;2023-08-08T12:35:49;1.00;;;1.00;;
10120;SDS011;5100;45.176;5.714;2023-08-08T12:38:15;1.30;;;1.20;;
10120;SDS011;5100;45.176;5.714;2023-08-08T12:40:41;1.30;;;1.20;;
10120;SDS011;5100;45.176;5.714;2023-08-08T12:43:09;1.30;;;1.20;;
10120;SDS011;5100;45.176;5.714;2023-08-08T12:45:39;1.37;;;1.15;;
10120;SDS011;5100;45.176;5.714;2023-08-08T12:48:06;1.27;;;1.17;;
10120;SDS011;5100;45.176;5.714;2023-08-08T12:50:32;3.62;;;1.67;;
10120;SDS011;5100;45.176;5.714;2023-08-08T12:52:58;1.02;;;1.02;;
10120;SDS011;5100;45.176;5.714;2023-08-08T12:55:25;1.20;;;1.10;;
10120;SDS011;5100;45.176;5.714;2023-08-08T12:57:51;1.37;;;1.23;;
10120;SDS011;5100;45.176;5.714;2023-08-08T13:00:16;1.20;;;1.15;;
10120;SDS011;5100;45.176;5.714;2023-08-08T13:02:43;1.60;;;1.00;;
10120;SDS011;5100;45.176;5.714;2023-08-08T13:05:09;0.98;;;0.93;;
10120;SDS011;5100;45.176;5.714;2023-08-08T13:07:35;1.20;;;1.10;;
10120;SDS011;5100;45.176;5.714;2023-08-08T13:10:01;2.42;;;1.20;;
10120;SDS011;5100;45.176;5.714;2023-08-08T13:12:28;1.75;;;1.00;;
10120;SDS011;5100;45.176;5.714;2023-08-08T13:14:54;1.05;;;1.02;;
10120;SDS011;5100;45.176;5.714;2023-08-08T13:17:20;1.33;;;1.20;;
10120;SDS011;5100;45.176;5.714;2023-08-08T13:19:46;1.17;;;0.95;;
10120;SDS011;5100;45.176;5.714;2023-08-08T13:22:12;3.80;;;1.20;;
10120;SDS011;5100;45.176;5.714;2023-08-08T13:24:38;2.42;;;1.27;;
10120;SDS011;5100;45.176;5.714;2023-08-08T13:27:05;1.33;;;1.00;;
10120;SDS011;5100;45.176;5.714;2023-08-08T13:29:31;1.10;;;1.05;;
10120;SDS011;5100;45.176;5.714;2023-08-08T13:31:57;3.45;;;1.40;;
10120;SDS011;5100;45.176;5.714;2023-08-08T13:34:23;1.30;;;1.10;;
10120;SDS011;5100;45.176;5.714;2023-08-08T13:36:49;1.00;;;0.95;;
10120;SDS011;5100;45.176;5.714;2023-08-08T13:39:15;2.80;;;1.17;;
10120;SDS011;5100;45.176;5.714;2023-08-08T13:41:41;0.95;;;0.95;;
10120;SDS011;5100;45.176;5.714;2023-08-08T13:44:07;1.00;;;1.00;;
10120;SDS011;5100;45.176;5.714;2023-08-08T13:46:34;1.00;;;1.00;;
10120;SDS011;5100;45.176;5.714;2023-08-08T13:49:00;1.10;;;1.00;;
10120;SDS011;5100;45.176;5.714;2023-08-08T13:51:26;1.27;;;1.10;;
10120;SDS011;5100;45.176;5.714;2023-08-08T13:53:53;1.80;;;1.12;;
10120;SDS011;5100;45.176;5.714;2023-08-08T13:56:19;0.80;;;0.80;;
10120;SDS011;5100;45.176;5.714;2023-08-08T13:58:46;1.30;;;1.08;;
10120;SDS011;5100;45.176;5.714;2023-08-08T14:01:12;1.45;;;1.23;;
10120;SDS011;5100;45.176;5.714;2023-08-08T14:03:39;1.00;;;1.00;;
10120;SDS011;5100;45.176;5.714;2023-08-08T14:06:05;0.80;;;0.80;;
10120;SDS011;5100;45.176;5.714;2023-08-08T14:08:31;1.27;;;1.17;;
10120;SDS011;5100;45.176;5.714;2023-08-08T14:10:58;2.15;;;1.87;;
10120;SDS011;5100;45.176;5.714;2023-08-08T14:13:26;1.87;;;1.00;;
10120;SDS011;5100;45.176;5.714;2023-08-08T14:15:52;1.48;;;1.00;;
10120;SDS011;5100;45.176;5.714;2023-08-08T14:18:19;1.73;;;1.12;;
10120;SDS011;5100;45.176;5.714;2023-08-08T14:20:44;1.73;;;1.02;;
10120;SDS011;5100;45.176;5.714;2023-08-08T14:23:10;1.37;;;0.90;;
10120;SDS011;5100;45.176;5.714;2023-08-08T14:25:37;1.10;;;1.08;;
10120;SDS011;5100;45.176;5.714;2023-08-08T14:28:03;1.05;;;1.00;;
10120;SDS011;5100;45.176;5.714;2023-08-08T14:30:29;0.88;;;0.88;;
10120;SDS011;5100;45.176;5.714;2023-08-08T14:32:56;0.95;;;0.95;;
10120;SDS011;5100;45.176;5.714;2023-08-08T14:35:22;1.02;;;0.90;;
10120;SDS011;5100;45.176;5.714;2023-08-08T14:37:48;1.02;;;1.00;;
10120;SDS011;5100;45.176;5.714;2023-08-08T14:40:14;2.05;;;1.02;;
10120;SDS011;5100;45.176;5.714;2023-08-08T14:42:40;0.90;;;0.90;;
10120;SDS011;5100;45.176;5.714;2023-08-08T14:45:06;1.67;;;1.20;;
10120;SDS011;5100;45.176;5.714;2023-08-08T14:47:32;1.00;;;1.00;;
10120;SDS011;5100;45.176;5.714;2023-08-08T14:49:58;0.82;;;0.82;;
10120;SDS011;5100;45.176;5.714;2023-08-08T14:52:24;0.93;;;0.90;;
10120;SDS011;5100;45.176;5.714;2023-08-08T14:54:51;0.90;;;0.90;;
10120;SDS011;5100;45.176;5.714;2023-08-08T14:57:17;2.78;;;1.02;;
10120;SDS011;5100;45.176;5.714;2023-08-08T14:59:43;0.80;;;0.80;;